sensor_id;sensor_type;location;lat;lon;timestamp;temperature;humidity
49549;DHT22;35450;44.518;7.466;2023-04-08T00:00:07;9.20;96.70
49549;DHT22;35450;44.518;7.466;2023-04-08T00:03:14;9.20;96.10
49549;DHT22;35450;44.518;7.466;2023-04-08T00:06:18;9.30;95.30
49549;DHT22;35450;44.518;7.466;2023-04-08T00:09:22;9.20;95.50
49549;DHT22;35450;44.518;7.466;2023-04-08T00:12:26;9.20;95.10
49549;DHT22;35450;44.518;7.466;2023-04-08T00:15:30;9.20;95.40
49549;DHT22;35450;44.518;7.466;2023-04-08T00:18:33;9.30;95.20
49549;DHT22;35450;44.518;7.466;2023-04-08T00:21:38;9.20;95.00
49549;DHT22;35450;44.518;7.466;2023-04-08T00:24:42;9.30;94.90
49549;DHT22;35450;44.518;7.466;2023-04-08T00:27:45;9.20;95.10
49549;DHT22;35450;44.518;7.466;2023-04-08T00:30:49;9.20;94.90
49549;DHT22;35450;44.518;7.466;2023-04-08T00:33:54;9.20;95.00
49549;DHT22;35450;44.518;7.466;2023-04-08T00:36:58;9.10;95.20
49549;DHT22;35450;44.518;7.466;2023-04-08T00:40:03;9.20;94.90
49549;DHT22;35450;44.518;7.466;2023-04-08T00:43:06;9.20;94.70
49549;DHT22;35450;44.518;7.466;2023-04-08T00:46:11;9.20;94.60
49549;DHT22;35450;44.518;7.466;2023-04-08T00:49:15;9.10;94.60
49549;DHT22;35450;44.518;7.466;2023-04-08T00:52:20;9.20;94.60
49549;DHT22;35450;44.518;7.466;2023-04-08T00:55:24;9.20;94.80
49549;DHT22;35450;44.518;7.466;2023-04-08T00:58:29;9.20;94.90
49549;DHT22;35450;44.518;7.466;2023-04-08T01:01:40;9.20;94.90
49549;DHT22;35450;44.518;7.466;2023-04-08T01:08:07;9.20;95.00
49549;DHT22;35450;44.518;7.466;2023-04-08T01:11:12;9.10;95.40
49549;DHT22;35450;44.518;7.466;2023-04-08T01:14:20;9.20;95.30
49549;DHT22;35450;44.518;7.466;2023-04-08T01:17:27;9.20;94.90
49549;DHT22;35450;44.518;7.466;2023-04-08T01:20:32;9.20;95.30
49549;DHT22;35450;44.518;7.466;2023-04-08T01:23:58;9.20;95.60
49549;DHT22;35450;44.518;7.466;2023-04-08T01:27:04;9.20;95.70
49549;DHT22;35450;44.518;7.466;2023-04-08T01:30:11;9.20;95.70
49549;DHT22;35450;44.518;7.466;2023-04-08T01:33:17;9.20;95.60
49549;DHT22;35450;44.518;7.466;2023-04-08T01:36:23;9.00;96.00
49549;DHT22;35450;44.518;7.466;2023-04-08T01:39:29;9.10;96.30
49549;DHT22;35450;44.518;7.466;2023-04-08T01:42:34;9.10;96.10
49549;DHT22;35450;44.518;7.466;2023-04-08T01:45:39;9.20;95.70
49549;DHT22;35450;44.518;7.466;2023-04-08T01:48:44;9.20;95.40
49549;DHT22;35450;44.518;7.466;2023-04-08T01:51:48;9.20;94.90
49549;DHT22;35450;44.518;7.466;2023-04-08T01:54:55;9.20;94.90
49549;DHT22;35450;44.518;7.466;2023-04-08T01:58:01;9.20;94.70
49549;DHT22;35450;44.518;7.466;2023-04-08T02:01:14;9.20;94.90
49549;DHT22;35450;44.518;7.466;2023-04-08T02:04:20;9.20;94.70
49549;DHT22;35450;44.518;7.466;2023-04-08T02:07:24;9.30;94.70
49549;DHT22;35450;44.518;7.466;2023-04-08T02:10:28;9.20;94.80
49549;DHT22;35450;44.518;7.466;2023-04-08T02:13:32;9.20;95.10
49549;DHT22;35450;44.518;7.466;2023-04-08T02:16:43;9.20;94.90
49549;DHT22;35450;44.518;7.466;2023-04-08T02:19:59;9.20;95.30
49549;DHT22;35450;44.518;7.466;2023-04-08T02:23:16;9.20;95.80
49549;DHT22;35450;44.518;7.466;2023-04-08T02:26:23;9.10;95.30
49549;DHT22;35450;44.518;7.466;2023-04-08T02:29:30;9.20;94.70
49549;DHT22;35450;44.518;7.466;2023-04-08T02:32:35;9.20;95.10
49549;DHT22;35450;44.518;7.466;2023-04-08T02:35:40;9.10;95.20
49549;DHT22;35450;44.518;7.466;2023-04-08T02:38:48;9.00;95.60
49549;DHT22;35450;44.518;7.466;2023-04-08T02:41:53;9.00;95.10
49549;DHT22;35450;44.518;7.466;2023-04-08T02:44:59;9.10;95.10
49549;DHT22;35450;44.518;7.466;2023-04-08T02:48:03;9.10;95.20
49549;DHT22;35450;44.518;7.466;2023-04-08T02:51:08;9.10;94.80
49549;DHT22;35450;44.518;7.466;2023-04-08T02:54:12;9.10;94.40
49549;DHT22;35450;44.518;7.466;2023-04-08T02:57:16;9.20;94.60
49549;DHT22;35450;44.518;7.466;2023-04-08T03:00:20;9.20;94.80
49549;DHT22;35450;44.518;7.466;2023-04-08T03:03:24;9.20;94.90
49549;DHT22;35450;44.518;7.466;2023-04-08T03:06:32;9.20;94.90
49549;DHT22;35450;44.518;7.466;2023-04-08T03:09:36;9.20;95.50
49549;DHT22;35450;44.518;7.466;2023-04-08T03:12:40;9.20;95.20
49549;DHT22;35450;44.518;7.466;2023-04-08T03:15:44;9.10;94.60
49549;DHT22;35450;44.518;7.466;2023-04-08T03:18:49;9.10;94.50
49549;DHT22;35450;44.518;7.466;2023-04-08T03:21:53;9.10;95.00
49549;DHT22;35450;44.518;7.466;2023-04-08T03:24:58;9.10;93.20
49549;DHT22;35450;44.518;7.466;2023-04-08T03:28:02;9.20;91.50
49549;DHT22;35450;44.518;7.466;2023-04-08T03:31:06;9.20;90.90
49549;DHT22;35450;44.518;7.466;2023-04-08T03:34:10;9.30;90.60
49549;DHT22;35450;44.518;7.466;2023-04-08T03:37:13;9.40;90.40
49549;DHT22;35450;44.518;7.466;2023-04-08T03:40:18;9.40;90.00
49549;DHT22;35450;44.518;7.466;2023-04-08T03:43:21;9.50;89.70
49549;DHT22;35450;44.518;7.466;2023-04-08T03:46:26;9.30;91.50
49549;DHT22;35450;44.518;7.466;2023-04-08T03:49:30;9.00;93.20
49549;DHT22;35450;44.518;7.466;2023-04-08T03:52:34;8.90;94.00
49549;DHT22;35450;44.518;7.466;2023-04-08T03:55:38;8.80;94.60
49549;DHT22;35450;44.518;7.466;2023-04-08T03:58:42;8.60;94.80
49549;DHT22;35450;44.518;7.466;2023-04-08T04:01:46;8.70;94.80
49549;DHT22;35450;44.518;7.466;2023-04-08T04:04:50;8.70;94.70
49549;DHT22;35450;44.518;7.466;2023-04-08T04:07:54;8.70;94.50
49549;DHT22;35450;44.518;7.466;2023-04-08T04:10:59;8.70;94.60
49549;DHT22;35450;44.518;7.466;2023-04-08T04:14:02;8.60;94.50
49549;DHT22;35450;44.518;7.466;2023-04-08T04:17:06;8.60;94.10
49549;DHT22;35450;44.518;7.466;2023-04-08T04:20:11;8.70;93.80
49549;DHT22;35450;44.518;7.466;2023-04-08T04:23:15;8.70;93.30
49549;DHT22;35450;44.518;7.466;2023-04-08T04:26:19;8.60;92.90
49549;DHT22;35450;44.518;7.466;2023-04-08T04:29:23;8.30;93.30
49549;DHT22;35450;44.518;7.466;2023-04-08T04:32:27;8.10;93.40
49549;DHT22;35450;44.518;7.466;2023-04-08T04:35:31;7.80;94.30
49549;DHT22;35450;44.518;7.466;2023-04-08T04:38:35;7.80;94.80
49549;DHT22;35450;44.518;7.466;2023-04-08T04:41:39;8.00;94.50
49549;DHT22;35450;44.518;7.466;2023-04-08T04:44:44;8.20;94.00
49549;DHT22;35450;44.518;7.466;2023-04-08T04:47:47;8.20;93.60
49549;DHT22;35450;44.518;7.466;2023-04-08T04:50:55;8.20;93.20
49549;DHT22;35450;44.518;7.466;2023-04-08T04:53:59;8.30;93.10
49549;DHT22;35450;44.518;7.466;2023-04-08T04:57:04;8.30;92.90
49549;DHT22;35450;44.518;7.466;2023-04-08T05:00:08;8.30;92.70
49549;DHT22;35450;44.518;7.466;2023-04-08T05:03:12;8.20;92.50
49549;DHT22;35450;44.518;7.466;2023-04-08T05:06:16;8.40;92.50
49549;DHT22;35450;44.518;7.466;2023-04-08T05:09:20;8.30;92.40
49549;DHT22;35450;44.518;7.466;2023-04-08T05:12:25;8.40;92.30
49549;DHT22;35450;44.518;7.466;2023-04-08T05:15:30;8.40;92.00
49549;DHT22;35450;44.518;7.466;2023-04-08T05:18:35;8.40;92.30
49549;DHT22;35450;44.518;7.466;2023-04-08T05:21:39;8.40;92.30
49549;DHT22;35450;44.518;7.466;2023-04-08T05:24:43;8.40;92.30
49549;DHT22;35450;44.518;7.466;2023-04-08T05:27:47;8.40;92.50
49549;DHT22;35450;44.518;7.466;2023-04-08T05:30:52;8.30;92.50
49549;DHT22;35450;44.518;7.466;2023-04-08T05:33:56;8.20;92.90
49549;DHT22;35450;44.518;7.466;2023-04-08T05:37:00;8.30;93.00
49549;DHT22;35450;44.518;7.466;2023-04-08T05:40:05;8.30;93.40
49549;DHT22;35450;44.518;7.466;2023-04-08T05:43:09;8.40;93.40
49549;DHT22;35450;44.518;7.466;2023-04-08T05:46:13;8.50;93.40
49549;DHT22;35450;44.518;7.466;2023-04-08T05:49:17;8.50;93.40
49549;DHT22;35450;44.518;7.466;2023-04-08T05:52:21;8.50;93.20
49549;DHT22;35450;44.518;7.466;2023-04-08T05:55:25;8.50;93.10
49549;DHT22;35450;44.518;7.466;2023-04-08T05:58:29;8.50;92.80
49549;DHT22;35450;44.518;7.466;2023-04-08T06:01:33;8.60;92.90
49549;DHT22;35450;44.518;7.466;2023-04-08T06:04:38;8.60;93.20
49549;DHT22;35450;44.518;7.466;2023-04-08T06:07:42;8.70;92.70
49549;DHT22;35450;44.518;7.466;2023-04-08T06:10:50;8.80;93.40
49549;DHT22;35450;44.518;7.466;2023-04-08T06:13:54;8.90;93.80
49549;DHT22;35450;44.518;7.466;2023-04-08T06:16:58;8.90;94.00
49549;DHT22;35450;44.518;7.466;2023-04-08T06:20:03;9.00;93.80
49549;DHT22;35450;44.518;7.466;2023-04-08T06:23:07;9.10;94.10
49549;DHT22;35450;44.518;7.466;2023-04-08T06:26:15;9.10;94.20
49549;DHT22;35450;44.518;7.466;2023-04-08T06:29:20;9.20;94.00
49549;DHT22;35450;44.518;7.466;2023-04-08T06:32:24;9.20;93.50
49549;DHT22;35450;44.518;7.466;2023-04-08T06:35:29;9.40;93.40
49549;DHT22;35450;44.518;7.466;2023-04-08T06:38:33;9.40;93.80
49549;DHT22;35450;44.518;7.466;2023-04-08T06:41:38;9.40;91.80
49549;DHT22;35450;44.518;7.466;2023-04-08T06:44:56;9.50;91.80
49549;DHT22;35450;44.518;7.466;2023-04-08T06:48:00;9.60;91.90
49549;DHT22;35450;44.518;7.466;2023-04-08T06:51:04;9.60;91.80
49549;DHT22;35450;44.518;7.466;2023-04-08T06:54:10;9.70;91.80
49549;DHT22;35450;44.518;7.466;2023-04-08T06:57:14;9.70;91.60
49549;DHT22;35450;44.518;7.466;2023-04-08T07:00:18;9.80;91.30
49549;DHT22;35450;44.518;7.466;2023-04-08T07:03:22;9.90;90.50
49549;DHT22;35450;44.518;7.466;2023-04-08T07:06:26;9.90;90.60
49549;DHT22;35450;44.518;7.466;2023-04-08T07:09:30;9.90;90.20
49549;DHT22;35450;44.518;7.466;2023-04-08T07:12:35;10.00;88.60
49549;DHT22;35450;44.518;7.466;2023-04-08T07:15:40;10.10;90.00
49549;DHT22;35450;44.518;7.466;2023-04-08T07:18:44;10.00;89.50
49549;DHT22;35450;44.518;7.466;2023-04-08T07:21:49;10.10;88.00
49549;DHT22;35450;44.518;7.466;2023-04-08T07:24:53;10.10;86.50
49549;DHT22;35450;44.518;7.466;2023-04-08T07:27:57;10.10;86.10
49549;DHT22;35450;44.518;7.466;2023-04-08T07:31:27;10.10;86.30
49549;DHT22;35450;44.518;7.466;2023-04-08T07:34:34;10.20;86.70
49549;DHT22;35450;44.518;7.466;2023-04-08T07:37:38;10.30;85.10
49549;DHT22;35450;44.518;7.466;2023-04-08T07:40:42;10.40;83.70
49549;DHT22;35450;44.518;7.466;2023-04-08T07:43:46;10.40;83.60
49549;DHT22;35450;44.518;7.466;2023-04-08T07:46:50;10.40;84.40
49549;DHT22;35450;44.518;7.466;2023-04-08T07:49:54;10.50;84.00
49549;DHT22;35450;44.518;7.466;2023-04-08T07:52:58;10.50;82.30
49549;DHT22;35450;44.518;7.466;2023-04-08T07:56:02;10.60;81.70
49549;DHT22;35450;44.518;7.466;2023-04-08T07:59:09;10.60;82.10
49549;DHT22;35450;44.518;7.466;2023-04-08T08:02:14;10.70;82.00
49549;DHT22;35450;44.518;7.466;2023-04-08T08:05:18;10.80;81.20
49549;DHT22;35450;44.518;7.466;2023-04-08T08:08:22;10.70;80.80
49549;DHT22;35450;44.518;7.466;2023-04-08T08:11:26;10.80;81.60
49549;DHT22;35450;44.518;7.466;2023-04-08T08:14:30;10.80;81.50
49549;DHT22;35450;44.518;7.466;2023-04-08T08:17:34;10.80;79.20
49549;DHT22;35450;44.518;7.466;2023-04-08T08:20:39;10.90;81.60
49549;DHT22;35450;44.518;7.466;2023-04-08T08:23:43;10.90;80.40
49549;DHT22;35450;44.518;7.466;2023-04-08T08:26:47;10.90;80.80
49549;DHT22;35450;44.518;7.466;2023-04-08T08:29:52;10.90;80.60
49549;DHT22;35450;44.518;7.466;2023-04-08T08:32:56;11.00;81.20
49549;DHT22;35450;44.518;7.466;2023-04-08T08:36:01;11.00;80.90
49549;DHT22;35450;44.518;7.466;2023-04-08T08:39:08;11.00;81.20
49549;DHT22;35450;44.518;7.466;2023-04-08T08:42:22;11.10;78.70
49549;DHT22;35450;44.518;7.466;2023-04-08T08:45:27;11.10;79.20
49549;DHT22;35450;44.518;7.466;2023-04-08T08:48:31;11.20;76.90
49549;DHT22;35450;44.518;7.466;2023-04-08T08:51:37;11.20;75.80
49549;DHT22;35450;44.518;7.466;2023-04-08T08:54:43;11.30;72.50
49549;DHT22;35450;44.518;7.466;2023-04-08T08:57:50;11.30;75.40
49549;DHT22;35450;44.518;7.466;2023-04-08T09:00:54;11.40;75.90
49549;DHT22;35450;44.518;7.466;2023-04-08T09:04:20;11.50;76.80
49549;DHT22;35450;44.518;7.466;2023-04-08T09:07:26;11.60;71.00
49549;DHT22;35450;44.518;7.466;2023-04-08T09:10:31;11.60;71.30
49549;DHT22;35450;44.518;7.466;2023-04-08T09:13:35;11.70;72.10
49549;DHT22;35450;44.518;7.466;2023-04-08T09:16:41;11.80;68.20
49549;DHT22;35450;44.518;7.466;2023-04-08T09:20:11;11.80;70.10
49549;DHT22;35450;44.518;7.466;2023-04-08T09:23:16;11.90;69.60
49549;DHT22;35450;44.518;7.466;2023-04-08T09:26:21;11.90;69.00
49549;DHT22;35450;44.518;7.466;2023-04-08T09:29:27;12.00;69.90
49549;DHT22;35450;44.518;7.466;2023-04-08T09:32:47;11.90;68.00
49549;DHT22;35450;44.518;7.466;2023-04-08T09:35:52;12.00;67.60
49549;DHT22;35450;44.518;7.466;2023-04-08T09:38:55;12.10;67.90
49549;DHT22;35450;44.518;7.466;2023-04-08T09:42:05;12.10;67.00
49549;DHT22;35450;44.518;7.466;2023-04-08T09:45:12;12.20;68.10
49549;DHT22;35450;44.518;7.466;2023-04-08T09:48:18;12.30;67.50
49549;DHT22;35450;44.518;7.466;2023-04-08T09:51:31;12.20;67.60
49549;DHT22;35450;44.518;7.466;2023-04-08T09:58:07;12.30;67.60
49549;DHT22;35450;44.518;7.466;2023-04-08T10:01:13;12.30;68.40
49549;DHT22;35450;44.518;7.466;2023-04-08T10:04:19;12.40;64.60
49549;DHT22;35450;44.518;7.466;2023-04-08T10:07:23;12.50;65.20
49549;DHT22;35450;44.518;7.466;2023-04-08T10:10:27;12.50;66.50
49549;DHT22;35450;44.518;7.466;2023-04-08T10:13:32;12.50;65.30
49549;DHT22;35450;44.518;7.466;2023-04-08T10:16:37;12.50;64.30
49549;DHT22;35450;44.518;7.466;2023-04-08T10:19:41;12.60;64.20
49549;DHT22;35450;44.518;7.466;2023-04-08T10:22:46;12.50;63.70
49549;DHT22;35450;44.518;7.466;2023-04-08T10:25:52;12.60;65.40
49549;DHT22;35450;44.518;7.466;2023-04-08T10:32:27;12.50;65.20
49549;DHT22;35450;44.518;7.466;2023-04-08T10:35:35;12.60;66.00
49549;DHT22;35450;44.518;7.466;2023-04-08T10:38:40;12.60;65.10
49549;DHT22;35450;44.518;7.466;2023-04-08T10:41:49;12.70;66.80
49549;DHT22;35450;44.518;7.466;2023-04-08T10:44:53;12.80;66.60
49549;DHT22;35450;44.518;7.466;2023-04-08T10:48:17;12.80;66.00
49549;DHT22;35450;44.518;7.466;2023-04-08T10:51:22;12.80;65.90
49549;DHT22;35450;44.518;7.466;2023-04-08T10:54:26;12.90;65.30
49549;DHT22;35450;44.518;7.466;2023-04-08T10:57:29;12.80;64.90
49549;DHT22;35450;44.518;7.466;2023-04-08T11:00:38;13.00;66.90
49549;DHT22;35450;44.518;7.466;2023-04-08T11:03:42;13.10;65.10
49549;DHT22;35450;44.518;7.466;2023-04-08T11:06:46;13.00;64.60
49549;DHT22;35450;44.518;7.466;2023-04-08T11:09:50;13.00;66.60
49549;DHT22;35450;44.518;7.466;2023-04-08T11:12:55;13.10;66.40
49549;DHT22;35450;44.518;7.466;2023-04-08T11:16:00;13.10;66.10
49549;DHT22;35450;44.518;7.466;2023-04-08T11:19:05;13.10;67.00
49549;DHT22;35450;44.518;7.466;2023-04-08T11:22:11;13.20;67.20
49549;DHT22;35450;44.518;7.466;2023-04-08T11:25:16;13.20;65.90
49549;DHT22;35450;44.518;7.466;2023-04-08T11:28:21;13.30;66.50
49549;DHT22;35450;44.518;7.466;2023-04-08T11:31:26;13.30;66.20
49549;DHT22;35450;44.518;7.466;2023-04-08T11:34:30;13.40;65.50
49549;DHT22;35450;44.518;7.466;2023-04-08T11:37:38;13.30;65.60
49549;DHT22;35450;44.518;7.466;2023-04-08T11:40:57;13.40;65.30
49549;DHT22;35450;44.518;7.466;2023-04-08T11:44:01;13.50;65.10
49549;DHT22;35450;44.518;7.466;2023-04-08T11:47:05;13.50;64.60
49549;DHT22;35450;44.518;7.466;2023-04-08T11:50:10;13.50;64.70
49549;DHT22;35450;44.518;7.466;2023-04-08T11:53:20;13.50;65.70
49549;DHT22;35450;44.518;7.466;2023-04-08T11:56:24;13.50;65.30
49549;DHT22;35450;44.518;7.466;2023-04-08T11:59:28;13.60;66.80
49549;DHT22;35450;44.518;7.466;2023-04-08T12:02:32;13.70;64.60
49549;DHT22;35450;44.518;7.466;2023-04-08T12:05:36;13.80;65.10
49549;DHT22;35450;44.518;7.466;2023-04-08T12:08:40;13.80;63.90
49549;DHT22;35450;44.518;7.466;2023-04-08T12:11:44;13.80;63.00
49549;DHT22;35450;44.518;7.466;2023-04-08T12:14:48;13.80;63.00
49549;DHT22;35450;44.518;7.466;2023-04-08T12:17:52;13.80;63.70
49549;DHT22;35450;44.518;7.466;2023-04-08T12:20:56;13.90;64.40
49549;DHT22;35450;44.518;7.466;2023-04-08T12:24:00;13.90;64.40
49549;DHT22;35450;44.518;7.466;2023-04-08T12:27:04;13.90;63.00
49549;DHT22;35450;44.518;7.466;2023-04-08T12:30:09;14.00;63.20
49549;DHT22;35450;44.518;7.466;2023-04-08T12:33:13;14.10;63.20
49549;DHT22;35450;44.518;7.466;2023-04-08T12:36:16;14.10;63.50
49549;DHT22;35450;44.518;7.466;2023-04-08T12:39:21;14.10;62.20
49549;DHT22;35450;44.518;7.466;2023-04-08T12:42:25;14.10;62.00
49549;DHT22;35450;44.518;7.466;2023-04-08T12:45:29;14.10;61.40
49549;DHT22;35450;44.518;7.466;2023-04-08T12:48:33;14.10;61.30
49549;DHT22;35450;44.518;7.466;2023-04-08T12:51:37;14.10;60.00
49549;DHT22;35450;44.518;7.466;2023-04-08T12:54:42;14.10;61.30
49549;DHT22;35450;44.518;7.466;2023-04-08T12:57:46;14.30;57.80
49549;DHT22;35450;44.518;7.466;2023-04-08T13:00:50;14.20;57.80
49549;DHT22;35450;44.518;7.466;2023-04-08T13:03:54;14.30;60.60
49549;DHT22;35450;44.518;7.466;2023-04-08T13:06:58;14.40;60.40
49549;DHT22;35450;44.518;7.466;2023-04-08T13:10:03;14.40;59.20
49549;DHT22;35450;44.518;7.466;2023-04-08T13:13:09;14.50;58.90
49549;DHT22;35450;44.518;7.466;2023-04-08T13:16:14;14.50;58.40
49549;DHT22;35450;44.518;7.466;2023-04-08T13:19:17;14.50;57.10
49549;DHT22;35450;44.518;7.466;2023-04-08T13:22:21;14.50;56.30
49549;DHT22;35450;44.518;7.466;2023-04-08T13:25:25;14.50;58.20
49549;DHT22;35450;44.518;7.466;2023-04-08T13:28:29;14.60;58.30
49549;DHT22;35450;44.518;7.466;2023-04-08T13:31:33;14.70;58.80
49549;DHT22;35450;44.518;7.466;2023-04-08T13:34:37;14.70;57.60
49549;DHT22;35450;44.518;7.466;2023-04-08T13:37:41;14.80;56.50
49549;DHT22;35450;44.518;7.466;2023-04-08T13:40:45;14.80;57.00
49549;DHT22;35450;44.518;7.466;2023-04-08T13:43:49;14.80;56.20
49549;DHT22;35450;44.518;7.466;2023-04-08T13:46:53;14.80;55.60
49549;DHT22;35450;44.518;7.466;2023-04-08T13:49:57;14.80;55.90
49549;DHT22;35450;44.518;7.466;2023-04-08T13:53:01;14.90;56.30
49549;DHT22;35450;44.518;7.466;2023-04-08T13:56:05;15.00;56.50
49549;DHT22;35450;44.518;7.466;2023-04-08T13:59:09;15.00;56.40
49549;DHT22;35450;44.518;7.466;2023-04-08T14:02:13;15.00;56.10
49549;DHT22;35450;44.518;7.466;2023-04-08T14:05:17;15.10;56.20
49549;DHT22;35450;44.518;7.466;2023-04-08T14:08:21;15.10;55.30
49549;DHT22;35450;44.518;7.466;2023-04-08T14:11:28;15.10;54.70
49549;DHT22;35450;44.518;7.466;2023-04-08T14:14:32;15.10;54.30
49549;DHT22;35450;44.518;7.466;2023-04-08T14:17:36;15.10;54.50
49549;DHT22;35450;44.518;7.466;2023-04-08T14:20:40;15.10;53.10
49549;DHT22;35450;44.518;7.466;2023-04-08T14:23:44;15.20;54.00
49549;DHT22;35450;44.518;7.466;2023-04-08T14:26:49;15.20;54.60
49549;DHT22;35450;44.518;7.466;2023-04-08T14:29:53;15.20;54.90
49549;DHT22;35450;44.518;7.466;2023-04-08T14:32:57;15.30;55.00
49549;DHT22;35450;44.518;7.466;2023-04-08T14:36:03;15.30;54.60
49549;DHT22;35450;44.518;7.466;2023-04-08T14:39:08;15.40;54.70
49549;DHT22;35450;44.518;7.466;2023-04-08T14:42:12;15.40;53.90
49549;DHT22;35450;44.518;7.466;2023-04-08T14:45:19;15.50;52.70
49549;DHT22;35450;44.518;7.466;2023-04-08T14:48:23;15.50;52.30
49549;DHT22;35450;44.518;7.466;2023-04-08T14:51:29;15.60;53.00
49549;DHT22;35450;44.518;7.466;2023-04-08T14:54:34;15.60;53.20
49549;DHT22;35450;44.518;7.466;2023-04-08T14:57:37;15.70;54.10
49549;DHT22;35450;44.518;7.466;2023-04-08T15:00:42;15.80;52.80
49549;DHT22;35450;44.518;7.466;2023-04-08T15:03:48;15.80;51.80
49549;DHT22;35450;44.518;7.466;2023-04-08T15:06:51;15.80;51.90
49549;DHT22;35450;44.518;7.466;2023-04-08T15:09:55;15.90;52.00
49549;DHT22;35450;44.518;7.466;2023-04-08T15:12:59;16.00;51.70
49549;DHT22;35450;44.518;7.466;2023-04-08T15:16:04;16.10;50.40
49549;DHT22;35450;44.518;7.466;2023-04-08T15:19:08;16.10;49.90
49549;DHT22;35450;44.518;7.466;2023-04-08T15:22:12;16.20;49.10
49549;DHT22;35450;44.518;7.466;2023-04-08T15:25:16;16.30;48.60
49549;DHT22;35450;44.518;7.466;2023-04-08T15:28:20;16.40;48.70
49549;DHT22;35450;44.518;7.466;2023-04-08T15:31:27;16.40;46.90
49549;DHT22;35450;44.518;7.466;2023-04-08T15:34:31;16.50;48.00
49549;DHT22;35450;44.518;7.466;2023-04-08T15:37:35;16.60;47.50
49549;DHT22;35450;44.518;7.466;2023-04-08T15:40:39;16.60;49.50
49549;DHT22;35450;44.518;7.466;2023-04-08T15:43:44;16.80;50.20
49549;DHT22;35450;44.518;7.466;2023-04-08T15:46:48;16.90;49.60
49549;DHT22;35450;44.518;7.466;2023-04-08T15:49:53;17.10;49.50
49549;DHT22;35450;44.518;7.466;2023-04-08T15:52:58;17.30;48.80
49549;DHT22;35450;44.518;7.466;2023-04-08T15:56:02;17.50;48.50
49549;DHT22;35450;44.518;7.466;2023-04-08T15:59:06;18.00;47.90
49549;DHT22;35450;44.518;7.466;2023-04-08T16:02:10;18.40;47.20
49549;DHT22;35450;44.518;7.466;2023-04-08T16:05:14;18.90;45.50
49549;DHT22;35450;44.518;7.466;2023-04-08T16:08:18;19.90;45.30
49549;DHT22;35450;44.518;7.466;2023-04-08T16:11:22;22.10;42.50
49549;DHT22;35450;44.518;7.466;2023-04-08T16:14:28;23.60;41.00
49549;DHT22;35450;44.518;7.466;2023-04-08T16:17:33;22.40;41.10
49549;DHT22;35450;44.518;7.466;2023-04-08T16:20:38;21.10;42.30
49549;DHT22;35450;44.518;7.466;2023-04-08T16:23:42;20.20;43.30
49549;DHT22;35450;44.518;7.466;2023-04-08T16:26:46;19.40;44.50
49549;DHT22;35450;44.518;7.466;2023-04-08T16:29:50;18.90;44.10
49549;DHT22;35450;44.518;7.466;2023-04-08T16:32:54;18.40;44.90
49549;DHT22;35450;44.518;7.466;2023-04-08T16:35:59;18.30;45.40
49549;DHT22;35450;44.518;7.466;2023-04-08T16:39:04;18.10;46.00
49549;DHT22;35450;44.518;7.466;2023-04-08T16:42:07;17.90;45.30
49549;DHT22;35450;44.518;7.466;2023-04-08T16:45:11;17.80;45.20
49549;DHT22;35450;44.518;7.466;2023-04-08T16:48:15;17.70;46.40
49549;DHT22;35450;44.518;7.466;2023-04-08T16:51:19;17.70;45.80
49549;DHT22;35450;44.518;7.466;2023-04-08T16:54:23;17.70;45.80
49549;DHT22;35450;44.518;7.466;2023-04-08T16:57:28;17.60;46.10
49549;DHT22;35450;44.518;7.466;2023-04-08T17:00:32;17.60;47.00
49549;DHT22;35450;44.518;7.466;2023-04-08T17:03:36;17.60;46.50
49549;DHT22;35450;44.518;7.466;2023-04-08T17:06:40;17.50;50.20
49549;DHT22;35450;44.518;7.466;2023-04-08T17:09:48;17.10;51.00
49549;DHT22;35450;44.518;7.466;2023-04-08T17:12:53;16.70;54.70
49549;DHT22;35450;44.518;7.466;2023-04-08T17:15:57;16.20;55.10
49549;DHT22;35450;44.518;7.466;2023-04-08T17:19:01;15.80;55.60
49549;DHT22;35450;44.518;7.466;2023-04-08T17:22:05;15.60;55.10
49549;DHT22;35450;44.518;7.466;2023-04-08T17:25:10;15.60;54.60
49549;DHT22;35450;44.518;7.466;2023-04-08T17:28:14;15.70;54.40
49549;DHT22;35450;44.518;7.466;2023-04-08T17:31:18;15.80;55.60
49549;DHT22;35450;44.518;7.466;2023-04-08T17:34:22;15.70;56.30
49549;DHT22;35450;44.518;7.466;2023-04-08T17:37:27;15.80;56.40
49549;DHT22;35450;44.518;7.466;2023-04-08T17:40:31;15.70;56.30
49549;DHT22;35450;44.518;7.466;2023-04-08T17:43:35;15.60;56.60
49549;DHT22;35450;44.518;7.466;2023-04-08T17:46:39;15.50;56.80
49549;DHT22;35450;44.518;7.466;2023-04-08T17:49:44;15.40;56.80
49549;DHT22;35450;44.518;7.466;2023-04-08T17:52:48;15.30;56.80
49549;DHT22;35450;44.518;7.466;2023-04-08T17:55:52;15.10;56.60
49549;DHT22;35450;44.518;7.466;2023-04-08T17:58:57;15.10;56.60
49549;DHT22;35450;44.518;7.466;2023-04-08T18:02:01;14.90;56.60
49549;DHT22;35450;44.518;7.466;2023-04-08T18:05:05;14.90;56.40
49549;DHT22;35450;44.518;7.466;2023-04-08T18:08:10;14.70;56.60
49549;DHT22;35450;44.518;7.466;2023-04-08T18:11:14;14.70;58.00
49549;DHT22;35450;44.518;7.466;2023-04-08T18:14:18;14.70;57.50
49549;DHT22;35450;44.518;7.466;2023-04-08T18:17:22;14.60;57.00
49549;DHT22;35450;44.518;7.466;2023-04-08T18:20:26;14.60;57.20
49549;DHT22;35450;44.518;7.466;2023-04-08T18:23:31;14.50;57.40
49549;DHT22;35450;44.518;7.466;2023-04-08T18:26:35;14.40;57.80
49549;DHT22;35450;44.518;7.466;2023-04-08T18:29:39;14.40;58.00
49549;DHT22;35450;44.518;7.466;2023-04-08T18:32:43;14.30;57.70
49549;DHT22;35450;44.518;7.466;2023-04-08T18:35:47;14.30;58.60
49549;DHT22;35450;44.518;7.466;2023-04-08T18:38:51;14.10;58.20
49549;DHT22;35450;44.518;7.466;2023-04-08T18:41:55;14.00;58.10
49549;DHT22;35450;44.518;7.466;2023-04-08T18:44:59;13.90;58.10
49549;DHT22;35450;44.518;7.466;2023-04-08T18:48:04;13.90;58.30
49549;DHT22;35450;44.518;7.466;2023-04-08T18:51:08;13.90;58.30
49549;DHT22;35450;44.518;7.466;2023-04-08T18:54:12;13.70;58.40
49549;DHT22;35450;44.518;7.466;2023-04-08T18:57:16;13.80;58.10
49549;DHT22;35450;44.518;7.466;2023-04-08T19:00:20;13.80;57.60
49549;DHT22;35450;44.518;7.466;2023-04-08T19:03:24;13.70;56.70
49549;DHT22;35450;44.518;7.466;2023-04-08T19:06:29;13.70;56.90
49549;DHT22;35450;44.518;7.466;2023-04-08T19:09:36;13.50;56.80
49549;DHT22;35450;44.518;7.466;2023-04-08T19:12:40;13.40;56.90
49549;DHT22;35450;44.518;7.466;2023-04-08T19:15:44;13.40;57.10
49549;DHT22;35450;44.518;7.466;2023-04-08T19:18:47;13.40;56.60
49549;DHT22;35450;44.518;7.466;2023-04-08T19:21:51;13.40;57.10
49549;DHT22;35450;44.518;7.466;2023-04-08T19:24:56;13.40;56.20
49549;DHT22;35450;44.518;7.466;2023-04-08T19:28:00;13.30;56.80
49549;DHT22;35450;44.518;7.466;2023-04-08T19:31:04;13.30;56.30
49549;DHT22;35450;44.518;7.466;2023-04-08T19:34:16;13.20;56.90
49549;DHT22;35450;44.518;7.466;2023-04-08T19:37:19;13.10;57.60
49549;DHT22;35450;44.518;7.466;2023-04-08T19:40:24;13.10;57.50
49549;DHT22;35450;44.518;7.466;2023-04-08T19:43:28;13.10;57.00
49549;DHT22;35450;44.518;7.466;2023-04-08T19:46:35;13.10;57.70